createdAt,value
2018-06-05T00:00:50.087Z,8.73
2018-06-05T00:05:45.489Z,7.07
2018-06-05T00:08:13.524Z,7.50
2018-06-05T00:15:36.270Z,10.63
2018-06-05T00:18:04.078Z,8.20
2018-06-05T00:20:32.098Z,7.43
2018-06-05T00:23:00.119Z,7.10
2018-06-05T00:25:28.142Z,8.07
2018-06-05T00:27:56.364Z,7.17
2018-06-05T00:30:24.378Z,7.27
2018-06-05T00:32:52.406Z,7.30
2018-06-05T00:35:20.423Z,9.53
2018-06-05T00:37:48.462Z,8.77
2018-06-05T00:40:16.290Z,9.63
2018-06-05T00:42:44.338Z,7.73
2018-06-05T00:45:12.358Z,7.93
2018-06-05T00:47:40.370Z,8.37
2018-06-05T00:50:08.395Z,8.93
2018-06-05T00:52:36.443Z,8.90
2018-06-05T00:55:04.502Z,7.23
2018-06-05T00:57:32.618Z,7.80
2018-06-05T01:00:00.634Z,7.63
2018-06-05T01:02:28.658Z,8.13
2018-06-05T01:04:56.677Z,7.97
2018-06-05T01:07:24.748Z,7.83
2018-06-05T01:09:52.771Z,8.00
2018-06-05T01:12:20.791Z,9.10
2018-06-05T01:14:48.831Z,8.43
2018-06-05T01:17:16.891Z,7.80
2018-06-05T01:19:44.910Z,8.23
2018-06-05T01:22:12.947Z,7.77
2018-06-05T01:24:40.982Z,8.20
2018-06-05T01:27:12.950Z,8.97
2018-06-05T01:29:40.992Z,8.73
2018-06-05T01:32:09.042Z,8.10
2018-06-05T01:34:37.077Z,9.93
2018-06-05T01:37:05.357Z,8.33
2018-06-05T01:39:33.390Z,7.77
2018-06-05T01:42:01.407Z,8.27
2018-06-05T01:44:29.430Z,8.03
2018-06-05T01:46:57.450Z,8.30
2018-06-05T01:49:29.726Z,7.60
2018-06-05T01:51:57.746Z,9.07
2018-06-05T01:54:25.766Z,10.80
2018-06-05T01:56:53.791Z,8.53
2018-06-05T02:16:33.192Z,9.13
2018-06-05T02:19:01.239Z,9.00
2018-06-05T02:21:29.258Z,8.70
2018-06-05T02:23:57.299Z,9.43
2018-06-05T02:26:25.322Z,10.93
2018-06-05T02:28:53.366Z,9.53
2018-06-05T02:31:21.171Z,9.30
2018-06-05T02:48:33.199Z,9.47
2018-06-05T02:53:28.578Z,9.70
2018-06-05T02:55:56.614Z,8.73
2018-06-05T02:58:24.635Z,9.60
2018-06-05T03:00:52.674Z,9.27
2018-06-05T03:03:20.714Z,9.33
2018-06-05T03:05:48.984Z,9.63
2018-06-05T03:08:17.003Z,11.40
2018-06-05T03:10:45.021Z,9.67
2018-06-05T03:13:13.051Z,10.03
2018-06-05T03:15:41.075Z,9.33
2018-06-05T03:18:09.090Z,9.63
2018-06-05T03:20:37.135Z,10.17
2018-06-05T03:23:05.195Z,9.30
2018-06-05T03:25:33.224Z,9.90
2018-06-05T03:28:01.243Z,9.90
2018-06-05T03:30:29.261Z,9.63
2018-06-05T03:32:57.285Z,9.10
2018-06-05T03:35:25.358Z,9.23
2018-06-05T03:40:20.754Z,10.10
2018-06-05T03:42:48.790Z,9.93
2018-06-05T03:45:16.814Z,10.47
2018-06-05T03:47:44.848Z,9.23
2018-06-05T03:50:12.874Z,10.40
2018-06-05T03:52:40.898Z,10.10
2018-06-05T04:04:58.410Z,10.87
2018-06-05T04:07:26.431Z,10.63
2018-06-05T04:09:54.479Z,11.50
2018-06-05T04:14:49.866Z,10.00
2018-06-05T04:19:45.265Z,12.30
2018-06-05T04:22:13.287Z,10.87
2018-06-05T04:27:08.708Z,10.53
2018-06-05T04:29:36.489Z,11.57
2018-06-05T04:32:04.511Z,10.65
2018-06-05T04:34:32.533Z,10.87
2018-06-05T04:37:01.366Z,11.13
2018-06-05T04:39:29.399Z,11.37
2018-06-05T04:41:57.436Z,11.33
2018-06-05T04:44:25.471Z,12.43
2018-06-05T04:46:53.494Z,10.93
2018-06-05T04:49:21.519Z,11.63
2018-06-05T04:51:49.547Z,11.73
2018-06-05T04:54:17.587Z,10.70
2018-06-05T04:56:45.617Z,15.60
2018-06-05T04:59:13.650Z,11.37
2018-06-05T05:01:41.673Z,11.93
2018-06-05T05:04:09.727Z,12.30
2018-06-05T05:06:37.550Z,10.17
2018-06-05T05:09:06.843Z,11.77
2018-06-05T05:11:35.297Z,11.17
2018-06-05T05:14:03.324Z,10.73
2018-06-05T05:16:31.359Z,10.40
2018-06-05T05:18:59.394Z,10.17
2018-06-05T05:26:21.970Z,13.47
2018-06-05T05:28:49.998Z,11.83
2018-06-05T05:31:18.031Z,10.50
2018-06-05T05:33:46.050Z,10.07
2018-06-05T05:36:14.089Z,10.15
2018-06-05T05:38:42.099Z,12.60
2018-06-05T05:41:10.143Z,9.40
2018-06-05T05:43:38.170Z,9.70
2018-06-05T05:46:06.203Z,10.90
2018-06-05T05:48:34.333Z,11.47
2018-06-05T05:51:02.371Z,10.37
2018-06-05T05:53:30.403Z,10.90
2018-06-05T05:55:58.498Z,8.77
2018-06-05T05:58:26.551Z,8.80
2018-06-05T06:00:54.578Z,8.93
2018-06-05T06:03:22.618Z,12.20
2018-06-05T06:05:50.663Z,9.43
2018-06-05T06:13:13.459Z,8.20
2018-06-05T06:15:41.502Z,9.37
2018-06-05T06:18:09.532Z,8.90
2018-06-05T06:20:37.560Z,8.87
2018-06-05T06:23:05.711Z,9.07
2018-06-05T06:28:00.973Z,10.40
2018-06-05T06:30:28.774Z,9.23
2018-06-05T06:37:51.559Z,7.90
2018-06-05T06:40:19.600Z,8.63
2018-06-05T06:42:47.623Z,7.47
2018-06-05T06:45:15.662Z,8.40
2018-06-05T06:47:43.678Z,7.43
2018-06-05T06:50:11.481Z,8.07
2018-06-05T06:52:39.506Z,7.83
2018-06-05T06:55:07.555Z,8.13
2018-06-05T06:57:35.583Z,8.40
2018-06-05T07:00:03.602Z,7.60
2018-06-05T07:02:31.626Z,7.40
2018-06-05T07:04:59.651Z,7.53
2018-06-05T07:07:27.663Z,7.40
2018-06-05T07:09:55.686Z,8.13
2018-06-05T07:12:23.747Z,7.80
2018-06-05T07:14:51.535Z,7.87
2018-06-05T07:17:19.591Z,8.43
2018-06-05T07:19:47.618Z,7.67
2018-06-05T07:22:15.634Z,8.00
2018-06-05T07:24:43.653Z,8.03
2018-06-05T07:27:11.675Z,8.20
2018-06-05T07:29:39.687Z,7.97
2018-06-05T07:32:07.705Z,8.57
2018-06-05T07:34:35.736Z,9.40
2018-06-05T07:37:03.796Z,10.13
2018-06-05T07:39:31.818Z,8.93
2018-06-05T07:41:59.864Z,9.10
2018-06-05T07:46:55.014Z,8.47
2018-06-05T07:49:23.031Z,8.43
2018-06-05T07:51:51.055Z,8.97
2018-06-05T07:54:19.130Z,12.07
2018-06-05T07:56:47.189Z,9.15
2018-06-05T07:59:15.212Z,9.20
2018-06-05T08:01:43.235Z,15.40
2018-06-05T08:04:11.259Z,10.48
2018-06-05T08:06:39.091Z,8.13
2018-06-05T08:09:08.685Z,8.78
2018-06-05T08:11:37.218Z,8.25
2018-06-05T08:14:05.259Z,9.95
2018-06-05T08:16:33.310Z,7.62
2018-06-05T08:23:56.083Z,8.63
2018-06-05T08:26:26.234Z,8.50
2018-06-05T08:31:21.610Z,7.03
2018-06-05T08:33:49.648Z,13.13
2018-06-05T08:36:17.659Z,8.58
2018-06-05T08:38:45.693Z,8.88
2018-06-05T08:46:08.283Z,8.33
2018-06-05T08:55:58.438Z,7.03
2018-06-05T08:58:26.459Z,8.48
2018-06-05T09:05:49.222Z,7.17
2018-06-05T09:10:44.679Z,7.08
2018-06-05T09:13:12.671Z,6.80
2018-06-05T09:15:40.698Z,7.62
2018-06-05T09:23:03.466Z,6.80
2018-06-05T09:25:31.502Z,7.25
2018-06-05T09:37:49.061Z,6.37
2018-06-05T09:40:17.127Z,7.45
2018-06-05T09:42:45.155Z,6.80
2018-06-05T09:45:14.211Z,7.12
2018-06-05T09:47:42.226Z,8.10
2018-06-05T09:50:10.262Z,9.10
2018-06-05T09:52:38.278Z,6.65
2018-06-05T09:55:06.332Z,6.30
2018-06-05T09:57:34.384Z,7.17
2018-06-05T10:00:02.387Z,10.63
2018-06-05T10:02:30.410Z,7.00
2018-06-05T10:04:58.435Z,7.92
2018-06-05T10:07:26.454Z,6.50
2018-06-05T10:09:54.495Z,7.50
2018-06-05T10:12:22.533Z,6.58
2018-06-05T10:14:50.567Z,5.97
2018-06-05T10:17:18.587Z,7.65
2018-06-05T10:19:46.624Z,6.53
2018-06-05T10:22:14.651Z,5.80
2018-06-05T10:27:10.043Z,9.13
2018-06-05T10:29:38.061Z,7.37
2018-06-05T10:32:06.126Z,7.70
2018-06-05T10:34:33.938Z,6.22
2018-06-05T10:37:01.963Z,8.55
2018-06-05T10:39:29.990Z,7.42
2018-06-05T10:44:25.398Z,9.65
2018-06-05T10:46:53.415Z,6.78
2018-06-05T10:49:21.459Z,6.00
2018-06-05T10:51:49.479Z,5.97
2018-06-05T10:54:17.531Z,6.72
2018-06-05T10:56:45.567Z,9.93
2018-06-05T10:59:13.590Z,12.33
2018-06-05T11:01:41.623Z,5.85
2018-06-05T11:04:09.659Z,6.08
2018-06-05T11:06:37.689Z,5.75
2018-06-05T11:09:06.730Z,6.17
2018-06-05T11:11:34.762Z,7.72
2018-06-05T11:14:02.807Z,6.05
2018-06-05T11:16:30.843Z,7.85
2018-06-05T11:18:58.870Z,6.50
2018-06-05T11:21:26.923Z,6.15
2018-06-05T11:23:54.942Z,6.12
2018-06-05T11:26:22.962Z,6.40
2018-06-05T11:33:45.695Z,5.58
2018-06-05T11:36:13.498Z,5.33
2018-06-05T11:43:36.075Z,6.10
2018-06-05T11:46:03.888Z,5.70
2018-06-05T11:53:26.466Z,5.80
2018-06-05T11:55:54.515Z,9.90
2018-06-05T11:58:22.543Z,6.97
2018-06-05T12:00:50.592Z,6.67
2018-06-05T12:05:45.963Z,9.05
2018-06-05T12:10:41.363Z,6.67
2018-06-05T12:13:09.398Z,6.42
2018-06-05T12:15:37.419Z,6.17
2018-06-05T12:18:05.252Z,6.42
2018-06-05T12:23:00.622Z,9.98
2018-06-05T12:25:28.678Z,5.65
2018-06-05T12:27:56.743Z,6.85
2018-06-05T12:37:46.898Z,5.70
2018-06-05T12:40:14.937Z,5.17
2018-06-05T12:42:42.949Z,5.03
2018-06-05T12:45:10.976Z,6.50
2018-06-05T12:47:39.003Z,5.42
2018-06-05T12:57:28.959Z,5.00
2018-06-05T12:59:56.992Z,5.10
2018-06-05T13:02:25.015Z,4.92
2018-06-05T13:04:53.034Z,5.70
2018-06-05T13:07:21.073Z,6.10
2018-06-05T13:09:48.876Z,6.72
2018-06-05T13:12:16.903Z,7.37
2018-06-05T13:14:44.955Z,6.10
2018-06-05T13:17:12.995Z,5.92
2018-06-05T13:19:41.038Z,7.17
2018-06-05T13:22:09.070Z,6.92
2018-06-05T13:24:37.094Z,6.83
2018-06-05T13:27:06.071Z,6.22
2018-06-05T13:29:34.306Z,7.58
2018-06-05T13:32:02.547Z,6.62
2018-06-05T13:34:30.572Z,6.00
2018-06-05T13:36:58.606Z,8.10
2018-06-05T13:39:26.622Z,5.75
2018-06-05T13:41:54.656Z,8.23
2018-06-05T13:46:50.051Z,6.45
2018-06-05T13:49:18.071Z,8.53
2018-06-05T14:01:35.823Z,6.53
2018-06-05T14:04:03.830Z,6.87
2018-06-05T14:06:31.873Z,5.80
2018-06-05T14:08:59.907Z,6.10
2018-06-05T14:11:27.946Z,6.20
2018-06-05T14:16:23.470Z,6.05
2018-06-05T14:18:51.510Z,8.80
2018-06-05T14:21:19.539Z,6.23
2018-06-05T14:23:47.574Z,6.72
2018-06-05T14:26:15.607Z,5.75
2018-06-05T14:28:43.631Z,6.17
2018-06-05T14:31:11.656Z,6.20
2018-06-05T14:33:39.675Z,7.55
2018-06-05T14:36:07.712Z,8.95
2018-06-05T14:38:35.751Z,6.33
2018-06-05T14:43:31.162Z,6.67
2018-06-05T14:45:59.186Z,6.50
2018-06-05T14:50:54.353Z,6.05
2018-06-05T14:53:22.883Z,5.78
2018-06-05T14:55:50.907Z,6.92
2018-06-05T14:58:18.943Z,5.70
2018-06-05T15:00:46.962Z,5.80
2018-06-05T15:03:14.990Z,6.62
2018-06-05T15:05:42.797Z,6.10
2018-06-05T15:08:10.836Z,6.08
2018-06-05T15:10:38.864Z,13.38
2018-06-05T15:13:06.931Z,6.67
2018-06-05T15:15:34.910Z,6.17
2018-06-05T15:18:02.932Z,7.00
2018-06-05T15:20:30.955Z,6.08
2018-06-05T15:22:58.980Z,6.20
2018-06-05T15:25:27.037Z,6.60
2018-06-05T15:27:55.059Z,6.20
2018-06-05T15:30:23.079Z,6.47
2018-06-05T15:32:51.100Z,6.80
2018-06-05T15:35:19.120Z,6.00
2018-06-05T15:37:46.922Z,6.45
2018-06-05T15:40:14.991Z,10.25
2018-06-05T15:42:43.006Z,6.45
2018-06-05T15:45:11.026Z,6.08
2018-06-05T15:47:39.067Z,7.50
2018-06-05T15:50:07.092Z,7.92
2018-06-05T15:52:35.131Z,9.70
2018-06-05T15:55:03.163Z,6.40
2018-06-05T15:57:31.205Z,6.70
2018-06-05T15:59:59.244Z,6.42
2018-06-05T16:02:27.283Z,8.98
2018-06-05T16:04:55.311Z,6.55
2018-06-05T16:07:23.337Z,6.30
2018-06-05T16:09:51.362Z,6.08
2018-06-05T16:12:19.395Z,8.15
2018-06-05T16:14:47.431Z,6.40
2018-06-05T16:17:15.450Z,8.05
2018-06-05T16:19:43.266Z,6.20
2018-06-05T16:22:11.294Z,6.50
2018-06-05T16:24:39.320Z,6.17
2018-06-05T16:27:07.342Z,5.72
2018-06-05T16:29:35.402Z,5.92
2018-06-05T16:32:03.423Z,6.55
2018-06-05T16:34:31.443Z,6.60
2018-06-05T16:36:59.459Z,6.08
2018-06-05T16:41:54.638Z,5.87
2018-06-05T16:44:22.691Z,6.30
2018-06-05T16:46:50.710Z,6.37
2018-06-05T16:51:46.108Z,8.23
2018-06-05T16:54:14.130Z,8.88
2018-06-05T16:56:42.167Z,10.13
2018-06-05T17:01:37.354Z,8.08
2018-06-05T17:06:33.551Z,6.60
2018-06-05T17:09:01.571Z,6.35
2018-06-05T17:16:24.348Z,6.60
2018-06-05T17:18:52.350Z,7.07
2018-06-05T17:21:20.389Z,7.53
2018-06-05T17:23:48.399Z,6.50
2018-06-05T17:26:16.447Z,6.97
2018-06-05T17:28:44.466Z,6.65
2018-06-05T17:31:12.491Z,8.85
2018-06-05T17:33:40.498Z,6.85
2018-06-05T17:36:08.527Z,7.87
2018-06-05T17:38:36.352Z,6.40
2018-06-05T17:41:04.380Z,6.80
2018-06-05T17:45:59.822Z,6.08
2018-06-05T17:50:55.158Z,7.20
2018-06-05T17:53:23.178Z,6.60
2018-06-05T17:55:51.208Z,6.85
2018-06-05T18:05:41.338Z,7.60
2018-06-05T18:08:09.362Z,6.65
2018-06-05T18:13:04.763Z,6.75
2018-06-05T18:17:59.954Z,7.22
2018-06-05T18:22:55.127Z,8.68
2018-06-05T18:25:23.154Z,7.20
2018-06-05T18:52:24.714Z,7.47
2018-06-05T18:59:47.314Z,7.22
2018-06-05T19:02:15.345Z,6.92
2018-06-05T19:04:43.370Z,8.60
2018-06-05T19:07:11.417Z,7.00
2018-06-05T19:09:39.414Z,8.70
2018-06-05T19:12:07.469Z,6.95
2018-06-05T19:14:35.543Z,13.75
2018-06-05T19:17:03.554Z,9.58
2018-06-05T19:19:31.632Z,6.37
2018-06-05T19:21:59.438Z,7.65
2018-06-05T19:24:27.462Z,7.70
2018-06-05T19:26:55.482Z,7.47
2018-06-05T19:29:23.512Z,7.05
2018-06-05T19:31:51.543Z,7.53
2018-06-05T19:36:46.926Z,7.28
2018-06-05T19:39:14.955Z,7.15
2018-06-05T19:41:42.757Z,6.80
2018-06-05T19:44:10.868Z,7.10
2018-06-05T19:51:33.618Z,6.92
2018-06-05T19:54:01.643Z,7.03
2018-06-05T19:56:29.466Z,8.75
2018-06-05T20:01:24.850Z,7.90
2018-06-05T20:18:37.082Z,7.10
2018-06-05T20:21:05.087Z,7.37
2018-06-05T20:23:33.104Z,7.50
2018-06-05T20:26:01.161Z,7.20
2018-06-05T20:28:29.188Z,7.10
2018-06-05T20:30:57.192Z,7.03
2018-06-05T20:33:25.223Z,7.12
2018-06-05T20:43:15.491Z,7.27
2018-06-05T20:45:43.558Z,7.40
2018-06-05T20:48:11.581Z,7.85
2018-06-05T20:50:39.678Z,7.30
2018-06-05T20:53:07.698Z,7.80
2018-06-05T20:55:35.886Z,7.58
2018-06-05T20:58:03.919Z,8.13
2018-06-05T21:00:31.932Z,8.60
2018-06-05T21:03:00.073Z,8.20
2018-06-05T21:05:28.102Z,8.57
2018-06-05T21:07:56.114Z,13.53
2018-06-05T21:10:24.162Z,9.30
2018-06-05T21:12:52.232Z,8.27
2018-06-05T21:15:20.251Z,8.73
2018-06-05T21:17:48.058Z,8.13
2018-06-05T21:20:16.083Z,8.45
2018-06-05T21:22:44.144Z,9.07
2018-06-05T21:25:12.178Z,8.83
2018-06-05T21:30:07.683Z,10.03
2018-06-05T21:32:35.714Z,10.30
2018-06-05T21:39:58.317Z,10.17
2018-06-05T21:42:26.377Z,11.63
2018-06-05T21:44:54.417Z,11.07
2018-06-05T21:47:22.456Z,10.20
2018-06-05T22:02:07.387Z,11.50
2018-06-05T22:04:35.436Z,12.00
2018-06-05T22:07:03.474Z,12.30
2018-06-05T22:09:31.506Z,13.27
2018-06-05T22:11:59.537Z,12.23
2018-06-05T22:14:27.562Z,12.00
2018-06-05T22:16:55.580Z,12.93
2018-06-05T22:19:23.617Z,12.90
2018-06-05T22:21:51.642Z,14.83
2018-06-05T22:24:19.674Z,12.73
2018-06-05T22:26:47.731Z,13.70
2018-06-05T22:29:15.549Z,13.17
2018-06-05T22:31:43.590Z,14.03
2018-06-05T22:34:11.631Z,14.23
2018-06-05T22:36:39.675Z,14.57
2018-06-05T22:39:07.726Z,14.43
2018-06-05T22:41:35.870Z,14.07
2018-06-05T22:44:03.902Z,15.05
2018-06-05T22:46:31.729Z,14.77
2018-06-05T22:48:59.762Z,14.20
2018-06-05T22:51:27.835Z,15.23
2018-06-05T22:53:55.849Z,15.17
2018-06-05T22:56:23.915Z,15.10
2018-06-05T22:58:52.041Z,15.20
2018-06-05T23:01:20.098Z,15.37
2018-06-05T23:03:48.151Z,14.67
2018-06-05T23:06:16.183Z,15.17
2018-06-05T23:08:44.247Z,15.07
2018-06-05T23:11:12.288Z,17.83
2018-06-05T23:13:40.323Z,14.63
2018-06-05T23:16:08.364Z,15.03
2018-06-05T23:18:36.415Z,15.77
2018-06-05T23:21:04.474Z,15.63
2018-06-05T23:23:32.506Z,16.37
2018-06-05T23:26:00.670Z,17.57
2018-06-05T23:28:28.720Z,17.00
2018-06-05T23:33:24.119Z,15.90
2018-06-05T23:38:19.530Z,16.47
